< Typhoon 197228 1972 Season Typhoon 197230 >
Typhoon 197229 (SALLY)
General InformationTrack Information on Google Maps || Disaster Info.ResourceGoogle EarthGE AnimationAtom FeedGeoJSON
Detalied Best Track (Time Zone = UTC)
Year Month Day Hour Lat. Long. Pressure (hPa) Wind (kt) Class Image Chart
1972 11 30 00 10.0 116.6 1008 0 2 -- Chart
1972 11 30 06 9.1 115.2 1004 0 2 -- Chart
1972 11 30 12 8.4 113.8 1000 0 9 -- Chart
1972 11 30 18 7.7 112.4 996 0 9 -- Chart
1972 12 1 00 7.3 110.9 990 0 9 -- Chart
1972 12 1 06 6.8 109.3 990 0 9 -- Chart
1972 12 1 12 6.5 107.9 985 0 9 -- Chart
1972 12 1 18 6.8 107.0 985 0 9 -- Chart
1972 12 2 00 7.0 106.3 985 0 9 -- Chart
1972 12 2 06 7.7 105.3 990 0 9 -- Chart
1972 12 2 12 7.8 104.6 990 0 9 -- Chart
1972 12 2 18 7.9 104.0 990 0 9 -- Chart
1972 12 3 00 8.0 103.1 990 0 9 -- Chart
1972 12 3 06 8.5 102.4 990 0 9 -- Chart
1972 12 3 12 8.9 101.9 992 0 9 -- Chart
1972 12 3 18 9.4 101.5 994 0 9 -- Chart
1972 12 4 00 9.7 101.3 996 0 9 -- Chart
1972 12 4 06 9.8 100.6 996 0 9 -- Chart
1972 12 4 12 9.8 99.7 1000 0 9 -- Chart
1972 12 4 18 10.0 98.6 1008 0 9 -- Chart
Japan Meteorological Agency Best Track Data | Correction Date : 1990-10-17
< Typhoon 197228 1972 Season Typhoon 197230 >

Help